sensor_id;sensor_type;location;lat;lon;timestamp;temperature;humidity
7000;DHT22;3540;53.242;10.408;2022-11-20T00:01:15;1.30;99.90
7000;DHT22;3540;53.242;10.408;2022-11-20T00:03:41;1.30;99.90
7000;DHT22;3540;53.242;10.408;2022-11-20T00:06:09;1.30;99.90
7000;DHT22;3540;53.242;10.408;2022-11-20T00:08:35;1.30;99.90
7000;DHT22;3540;53.242;10.408;2022-11-20T00:11:12;1.20;99.90
7000;DHT22;3540;53.242;10.408;2022-11-20T00:13:38;1.20;99.90
7000;DHT22;3540;53.242;10.408;2022-11-20T00:16:06;1.20;99.90
7000;DHT22;3540;53.242;10.408;2022-11-20T00:18:35;1.30;99.90
7000;DHT22;3540;53.242;10.408;2022-11-20T00:21:03;1.20;99.90
7000;DHT22;3540;53.242;10.408;2022-11-20T00:23:29;1.30;99.90
7000;DHT22;3540;53.242;10.408;2022-11-20T00:25:55;1.20;99.90
7000;DHT22;3540;53.242;10.408;2022-11-20T00:28:20;1.20;99.90
7000;DHT22;3540;53.242;10.408;2022-11-20T00:30:46;1.20;99.90
7000;DHT22;3540;53.242;10.408;2022-11-20T00:33:11;1.20;99.90
7000;DHT22;3540;53.242;10.408;2022-11-20T00:35:37;1.20;99.90
7000;DHT22;3540;53.242;10.408;2022-11-20T00:38:03;1.20;99.90
7000;DHT22;3540;53.242;10.408;2022-11-20T00:40:28;1.10;99.90
7000;DHT22;3540;53.242;10.408;2022-11-20T00:42:54;1.10;99.90
7000;DHT22;3540;53.242;10.408;2022-11-20T00:45:20;1.20;99.90
7000;DHT22;3540;53.242;10.408;2022-11-20T00:47:45;1.10;99.90
7000;DHT22;3540;53.242;10.408;2022-11-20T00:50:11;1.10;99.90
7000;DHT22;3540;53.242;10.408;2022-11-20T00:52:36;1.10;99.90
7000;DHT22;3540;53.242;10.408;2022-11-20T00:55:02;1.10;99.90
7000;DHT22;3540;53.242;10.408;2022-11-20T00:57:28;1.10;99.90
7000;DHT22;3540;53.242;10.408;2022-11-20T00:59:53;1.10;99.90
7000;DHT22;3540;53.242;10.408;2022-11-20T01:02:19;1.10;99.90
7000;DHT22;3540;53.242;10.408;2022-11-20T01:04:45;1.10;99.90
7000;DHT22;3540;53.242;10.408;2022-11-20T01:07:11;1.10;99.90
7000;DHT22;3540;53.242;10.408;2022-11-20T01:09:36;1.10;99.90
7000;DHT22;3540;53.242;10.408;2022-11-20T01:12:02;1.10;99.90
7000;DHT22;3540;53.242;10.408;2022-11-20T01:14:28;1.10;99.90
7000;DHT22;3540;53.242;10.408;2022-11-20T01:16:53;1.10;99.90
7000;DHT22;3540;53.242;10.408;2022-11-20T01:19:21;1.10;99.90
7000;DHT22;3540;53.242;10.408;2022-11-20T01:21:50;1.10;99.90
7000;DHT22;3540;53.242;10.408;2022-11-20T01:24:17;1.00;99.90
7000;DHT22;3540;53.242;10.408;2022-11-20T01:26:45;1.00;99.90
7000;DHT22;3540;53.242;10.408;2022-11-20T01:29:29;0.90;99.90
7000;DHT22;3540;53.242;10.408;2022-11-20T01:31:55;0.90;99.90
7000;DHT22;3540;53.242;10.408;2022-11-20T01:34:21;0.90;99.90
7000;DHT22;3540;53.242;10.408;2022-11-20T01:36:47;0.90;99.90
7000;DHT22;3540;53.242;10.408;2022-11-20T01:39:16;0.80;99.90
7000;DHT22;3540;53.242;10.408;2022-11-20T01:41:43;0.80;99.90
7000;DHT22;3540;53.242;10.408;2022-11-20T01:44:56;0.80;99.90
7000;DHT22;3540;53.242;10.408;2022-11-20T01:47:35;0.80;99.90
7000;DHT22;3540;53.242;10.408;2022-11-20T01:50:25;0.80;99.90
7000;DHT22;3540;53.242;10.408;2022-11-20T01:53:00;0.80;99.90
7000;DHT22;3540;53.242;10.408;2022-11-20T01:55:31;0.70;99.90
7000;DHT22;3540;53.242;10.408;2022-11-20T01:57:57;0.80;99.90
7000;DHT22;3540;53.242;10.408;2022-11-20T02:00:24;0.70;99.90
7000;DHT22;3540;53.242;10.408;2022-11-20T02:02:59;0.80;99.90
7000;DHT22;3540;53.242;10.408;2022-11-20T02:05:31;0.80;99.90
7000;DHT22;3540;53.242;10.408;2022-11-20T02:07:59;0.70;99.90
7000;DHT22;3540;53.242;10.408;2022-11-20T02:10:26;0.70;99.90
7000;DHT22;3540;53.242;10.408;2022-11-20T02:12:52;0.60;99.90
7000;DHT22;3540;53.242;10.408;2022-11-20T02:15:37;0.60;99.90
7000;DHT22;3540;53.242;10.408;2022-11-20T02:18:04;0.50;99.90
7000;DHT22;3540;53.242;10.408;2022-11-20T02:20:30;0.40;99.90
7000;DHT22;3540;53.242;10.408;2022-11-20T02:23:03;0.40;99.90
7000;DHT22;3540;53.242;10.408;2022-11-20T02:25:31;0.40;99.90
7000;DHT22;3540;53.242;10.408;2022-11-20T02:27:58;0.40;99.90
7000;DHT22;3540;53.242;10.408;2022-11-20T02:30:24;0.40;99.90
7000;DHT22;3540;53.242;10.408;2022-11-20T02:32:49;0.40;99.90
7000;DHT22;3540;53.242;10.408;2022-11-20T02:37:45;0.40;99.90
7000;DHT22;3540;53.242;10.408;2022-11-20T02:40:13;0.30;99.90
7000;DHT22;3540;53.242;10.408;2022-11-20T02:42:38;0.30;99.90
7000;DHT22;3540;53.242;10.408;2022-11-20T02:45:05;0.20;99.90
7000;DHT22;3540;53.242;10.408;2022-11-20T02:47:31;0.20;99.90
7000;DHT22;3540;53.242;10.408;2022-11-20T02:49:57;0.10;99.90
7000;DHT22;3540;53.242;10.408;2022-11-20T02:52:23;0.10;99.90
7000;DHT22;3540;53.242;10.408;2022-11-20T02:54:49;0.10;99.90
7000;DHT22;3540;53.242;10.408;2022-11-20T02:57:15;0.00;99.90
7000;DHT22;3540;53.242;10.408;2022-11-20T02:59:40;0.00;99.90
7000;DHT22;3540;53.242;10.408;2022-11-20T03:02:06;0.10;99.90
7000;DHT22;3540;53.242;10.408;2022-11-20T03:04:32;0.10;99.90
7000;DHT22;3540;53.242;10.408;2022-11-20T03:06:57;0.20;99.90
7000;DHT22;3540;53.242;10.408;2022-11-20T03:09:23;0.20;99.90
7000;DHT22;3540;53.242;10.408;2022-11-20T03:11:48;0.30;99.90
7000;DHT22;3540;53.242;10.408;2022-11-20T03:14:14;0.30;99.90
7000;DHT22;3540;53.242;10.408;2022-11-20T03:16:40;0.30;99.90
7000;DHT22;3540;53.242;10.408;2022-11-20T03:19:05;0.30;99.90
7000;DHT22;3540;53.242;10.408;2022-11-20T03:21:33;0.40;99.90
7000;DHT22;3540;53.242;10.408;2022-11-20T03:23:58;0.40;99.90
7000;DHT22;3540;53.242;10.408;2022-11-20T03:26:25;0.40;99.90
7000;DHT22;3540;53.242;10.408;2022-11-20T03:28:53;0.50;99.90
7000;DHT22;3540;53.242;10.408;2022-11-20T03:31:25;0.50;99.90
7000;DHT22;3540;53.242;10.408;2022-11-20T03:33:51;0.50;99.90
7000;DHT22;3540;53.242;10.408;2022-11-20T03:36:18;0.50;99.90
7000;DHT22;3540;53.242;10.408;2022-11-20T03:38:44;0.50;99.90
7000;DHT22;3540;53.242;10.408;2022-11-20T03:41:18;0.50;99.90
7000;DHT22;3540;53.242;10.408;2022-11-20T03:43:52;0.50;99.90
7000;DHT22;3540;53.242;10.408;2022-11-20T03:46:19;0.50;99.90
7000;DHT22;3540;53.242;10.408;2022-11-20T03:48:45;0.50;99.90
7000;DHT22;3540;53.242;10.408;2022-11-20T03:51:13;0.50;99.90
7000;DHT22;3540;53.242;10.408;2022-11-20T03:53:40;0.50;99.90
7000;DHT22;3540;53.242;10.408;2022-11-20T03:56:07;0.50;99.90
7000;DHT22;3540;53.242;10.408;2022-11-20T03:58:36;0.50;99.90
7000;DHT22;3540;53.242;10.408;2022-11-20T04:01:08;0.60;99.90
7000;DHT22;3540;53.242;10.408;2022-11-20T04:03:35;0.60;99.90
7000;DHT22;3540;53.242;10.408;2022-11-20T04:06:34;0.50;99.90
7000;DHT22;3540;53.242;10.408;2022-11-20T04:09:00;0.50;99.90
7000;DHT22;3540;53.242;10.408;2022-11-20T04:11:30;0.50;99.90
7000;DHT22;3540;53.242;10.408;2022-11-20T04:14:01;0.50;99.90
7000;DHT22;3540;53.242;10.408;2022-11-20T04:16:30;0.50;99.90
7000;DHT22;3540;53.242;10.408;2022-11-20T04:18:58;0.50;99.90
7000;DHT22;3540;53.242;10.408;2022-11-20T04:21:24;0.50;99.90
7000;DHT22;3540;53.242;10.408;2022-11-20T04:23:51;0.50;99.90
7000;DHT22;3540;53.242;10.408;2022-11-20T04:26:18;0.50;99.90
7000;DHT22;3540;53.242;10.408;2022-11-20T04:28:44;0.50;99.90
7000;DHT22;3540;53.242;10.408;2022-11-20T04:31:12;0.50;99.90
7000;DHT22;3540;53.242;10.408;2022-11-20T04:33:39;0.50;99.90
7000;DHT22;3540;53.242;10.408;2022-11-20T04:36:06;0.50;99.90
7000;DHT22;3540;53.242;10.408;2022-11-20T04:38:32;0.50;99.90
7000;DHT22;3540;53.242;10.408;2022-11-20T04:40:59;0.50;99.90
7000;DHT22;3540;53.242;10.408;2022-11-20T04:43:25;0.50;99.90
7000;DHT22;3540;53.242;10.408;2022-11-20T04:45:55;0.50;99.90
7000;DHT22;3540;53.242;10.408;2022-11-20T04:48:22;0.50;99.90
7000;DHT22;3540;53.242;10.408;2022-11-20T04:50:48;0.50;99.90
7000;DHT22;3540;53.242;10.408;2022-11-20T04:53:14;0.50;99.90
7000;DHT22;3540;53.242;10.408;2022-11-20T04:55:39;0.50;99.90
7000;DHT22;3540;53.242;10.408;2022-11-20T04:58:05;0.60;99.90
7000;DHT22;3540;53.242;10.408;2022-11-20T05:00:31;0.50;99.90
7000;DHT22;3540;53.242;10.408;2022-11-20T05:02:57;0.60;99.90
7000;DHT22;3540;53.242;10.408;2022-11-20T05:05:22;0.60;99.90
7000;DHT22;3540;53.242;10.408;2022-11-20T05:07:48;0.60;99.90
7000;DHT22;3540;53.242;10.408;2022-11-20T05:10:14;0.60;99.90
7000;DHT22;3540;53.242;10.408;2022-11-20T05:12:40;0.60;99.90
7000;DHT22;3540;53.242;10.408;2022-11-20T05:15:05;0.60;99.90
7000;DHT22;3540;53.242;10.408;2022-11-20T05:17:31;0.60;99.90
7000;DHT22;3540;53.242;10.408;2022-11-20T05:19:57;0.60;99.90
7000;DHT22;3540;53.242;10.408;2022-11-20T05:22:22;0.60;99.90
7000;DHT22;3540;53.242;10.408;2022-11-20T05:24:48;0.60;99.90
7000;DHT22;3540;53.242;10.408;2022-11-20T05:27:14;0.60;99.90
7000;DHT22;3540;53.242;10.408;2022-11-20T05:29:39;0.60;99.90
7000;DHT22;3540;53.242;10.408;2022-11-20T05:32:05;0.60;99.90
7000;DHT22;3540;53.242;10.408;2022-11-20T05:34:32;0.60;99.90
7000;DHT22;3540;53.242;10.408;2022-11-20T05:36:58;0.70;99.90
7000;DHT22;3540;53.242;10.408;2022-11-20T05:39:23;0.70;99.90
7000;DHT22;3540;53.242;10.408;2022-11-20T05:41:49;0.70;99.90
7000;DHT22;3540;53.242;10.408;2022-11-20T05:44:35;0.70;99.90
7000;DHT22;3540;53.242;10.408;2022-11-20T05:47:00;0.80;99.90
7000;DHT22;3540;53.242;10.408;2022-11-20T05:49:26;0.80;99.90
7000;DHT22;3540;53.242;10.408;2022-11-20T05:51:51;0.80;99.90
7000;DHT22;3540;53.242;10.408;2022-11-20T05:54:17;0.80;99.90
7000;DHT22;3540;53.242;10.408;2022-11-20T05:56:43;0.80;99.90
7000;DHT22;3540;53.242;10.408;2022-11-20T05:59:08;0.80;99.90
7000;DHT22;3540;53.242;10.408;2022-11-20T06:01:34;0.80;99.90
7000;DHT22;3540;53.242;10.408;2022-11-20T06:04:02;0.80;99.90
7000;DHT22;3540;53.242;10.408;2022-11-20T06:06:27;0.70;99.90
7000;DHT22;3540;53.242;10.408;2022-11-20T06:08:54;0.70;99.90
7000;DHT22;3540;53.242;10.408;2022-11-20T06:11:20;0.70;99.90
7000;DHT22;3540;53.242;10.408;2022-11-20T06:13:46;0.70;99.90
7000;DHT22;3540;53.242;10.408;2022-11-20T06:16:14;0.70;99.90
7000;DHT22;3540;53.242;10.408;2022-11-20T06:18:40;0.60;99.90
7000;DHT22;3540;53.242;10.408;2022-11-20T06:21:17;0.60;99.90
7000;DHT22;3540;53.242;10.408;2022-11-20T06:23:44;0.60;99.90
7000;DHT22;3540;53.242;10.408;2022-11-20T06:26:21;0.60;99.90
7000;DHT22;3540;53.242;10.408;2022-11-20T06:28:47;0.60;99.90
7000;DHT22;3540;53.242;10.408;2022-11-20T06:31:15;0.70;99.90
7000;DHT22;3540;53.242;10.408;2022-11-20T06:33:41;0.60;99.90
7000;DHT22;3540;53.242;10.408;2022-11-20T06:36:07;0.60;99.90
7000;DHT22;3540;53.242;10.408;2022-11-20T06:38:33;0.60;99.90
7000;DHT22;3540;53.242;10.408;2022-11-20T06:40:58;0.50;99.90
7000;DHT22;3540;53.242;10.408;2022-11-20T06:43:24;0.50;99.90
7000;DHT22;3540;53.242;10.408;2022-11-20T06:45:54;0.50;99.90
7000;DHT22;3540;53.242;10.408;2022-11-20T06:48:21;0.50;99.90
7000;DHT22;3540;53.242;10.408;2022-11-20T06:50:46;0.50;99.90
7000;DHT22;3540;53.242;10.408;2022-11-20T06:53:12;0.50;99.90
7000;DHT22;3540;53.242;10.408;2022-11-20T06:55:42;0.50;99.90
7000;DHT22;3540;53.242;10.408;2022-11-20T06:58:09;0.40;99.90
7000;DHT22;3540;53.242;10.408;2022-11-20T07:00:34;0.40;99.90
7000;DHT22;3540;53.242;10.408;2022-11-20T07:03:06;0.50;99.90
7000;DHT22;3540;53.242;10.408;2022-11-20T07:05:32;0.50;99.90
7000;DHT22;3540;53.242;10.408;2022-11-20T07:07:58;0.40;99.90
7000;DHT22;3540;53.242;10.408;2022-11-20T07:10:25;0.50;99.90
7000;DHT22;3540;53.242;10.408;2022-11-20T07:12:54;0.50;99.90
7000;DHT22;3540;53.242;10.408;2022-11-20T07:15:21;0.40;99.90
7000;DHT22;3540;53.242;10.408;2022-11-20T07:17:47;0.50;99.90
7000;DHT22;3540;53.242;10.408;2022-11-20T07:20:13;0.50;99.90
7000;DHT22;3540;53.242;10.408;2022-11-20T07:22:39;0.50;99.90
7000;DHT22;3540;53.242;10.408;2022-11-20T07:25:05;0.50;99.90
7000;DHT22;3540;53.242;10.408;2022-11-20T07:27:31;0.50;99.90
7000;DHT22;3540;53.242;10.408;2022-11-20T07:29:57;0.50;99.90
7000;DHT22;3540;53.242;10.408;2022-11-20T07:32:23;0.50;99.90
7000;DHT22;3540;53.242;10.408;2022-11-20T07:34:48;0.50;99.90
7000;DHT22;3540;53.242;10.408;2022-11-20T07:37:14;0.50;99.90
7000;DHT22;3540;53.242;10.408;2022-11-20T07:39:40;0.50;99.90
7000;DHT22;3540;53.242;10.408;2022-11-20T07:42:06;0.50;99.90
7000;DHT22;3540;53.242;10.408;2022-11-20T07:44:32;0.60;99.90
7000;DHT22;3540;53.242;10.408;2022-11-20T07:46:58;0.60;99.90
7000;DHT22;3540;53.242;10.408;2022-11-20T07:49:24;0.60;99.90
7000;DHT22;3540;53.242;10.408;2022-11-20T07:51:52;0.70;99.90
7000;DHT22;3540;53.242;10.408;2022-11-20T07:54:19;0.70;99.90
7000;DHT22;3540;53.242;10.408;2022-11-20T07:56:46;0.70;99.90
7000;DHT22;3540;53.242;10.408;2022-11-20T07:59:11;0.70;99.90
7000;DHT22;3540;53.242;10.408;2022-11-20T08:01:38;0.70;99.90
7000;DHT22;3540;53.242;10.408;2022-11-20T08:04:03;0.80;99.90
7000;DHT22;3540;53.242;10.408;2022-11-20T08:06:29;0.90;99.90
7000;DHT22;3540;53.242;10.408;2022-11-20T08:08:55;0.90;99.90
7000;DHT22;3540;53.242;10.408;2022-11-20T08:11:20;0.90;99.90
7000;DHT22;3540;53.242;10.408;2022-11-20T08:14:04;1.00;99.90
7000;DHT22;3540;53.242;10.408;2022-11-20T08:16:44;1.00;99.90
7000;DHT22;3540;53.242;10.408;2022-11-20T08:19:11;1.10;99.90
7000;DHT22;3540;53.242;10.408;2022-11-20T08:21:37;1.10;99.90
7000;DHT22;3540;53.242;10.408;2022-11-20T08:24:03;1.20;99.90
7000;DHT22;3540;53.242;10.408;2022-11-20T08:26:29;1.20;99.90
7000;DHT22;3540;53.242;10.408;2022-11-20T08:28:56;1.20;99.90
7000;DHT22;3540;53.242;10.408;2022-11-20T08:31:22;1.20;99.90
7000;DHT22;3540;53.242;10.408;2022-11-20T08:33:48;1.20;99.90
7000;DHT22;3540;53.242;10.408;2022-11-20T08:36:14;1.20;99.90
7000;DHT22;3540;53.242;10.408;2022-11-20T08:38:40;1.30;99.90
7000;DHT22;3540;53.242;10.408;2022-11-20T08:41:06;1.30;99.90
7000;DHT22;3540;53.242;10.408;2022-11-20T08:43:58;1.30;99.90
7000;DHT22;3540;53.242;10.408;2022-11-20T08:46:26;1.30;99.90
7000;DHT22;3540;53.242;10.408;2022-11-20T08:48:52;1.40;99.90
7000;DHT22;3540;53.242;10.408;2022-11-20T08:51:19;1.50;99.90
7000;DHT22;3540;53.242;10.408;2022-11-20T08:53:45;1.50;99.90
7000;DHT22;3540;53.242;10.408;2022-11-20T08:56:11;1.60;99.90
7000;DHT22;3540;53.242;10.408;2022-11-20T08:58:38;1.70;99.90
7000;DHT22;3540;53.242;10.408;2022-11-20T09:01:04;1.70;99.90
7000;DHT22;3540;53.242;10.408;2022-11-20T09:03:30;1.80;99.90
7000;DHT22;3540;53.242;10.408;2022-11-20T09:06:05;1.80;99.90
7000;DHT22;3540;53.242;10.408;2022-11-20T09:08:31;1.90;99.90
7000;DHT22;3540;53.242;10.408;2022-11-20T09:10:57;2.10;99.90
7000;DHT22;3540;53.242;10.408;2022-11-20T09:13:25;2.20;99.90
7000;DHT22;3540;53.242;10.408;2022-11-20T09:15:59;2.40;99.90
7000;DHT22;3540;53.242;10.408;2022-11-20T09:18:25;2.30;99.90
7000;DHT22;3540;53.242;10.408;2022-11-20T09:20:51;2.30;99.90
7000;DHT22;3540;53.242;10.408;2022-11-20T09:23:17;2.40;99.90
7000;DHT22;3540;53.242;10.408;2022-11-20T09:25:43;2.40;99.90
7000;DHT22;3540;53.242;10.408;2022-11-20T09:28:09;2.30;99.90
7000;DHT22;3540;53.242;10.408;2022-11-20T09:30:35;2.20;99.90
7000;DHT22;3540;53.242;10.408;2022-11-20T09:33:01;2.30;99.90
7000;DHT22;3540;53.242;10.408;2022-11-20T09:35:29;2.30;99.90
7000;DHT22;3540;53.242;10.408;2022-11-20T09:37:54;2.30;99.90
7000;DHT22;3540;53.242;10.408;2022-11-20T09:42:53;2.30;99.90
7000;DHT22;3540;53.242;10.408;2022-11-20T09:50:49;1.90;99.90
7000;DHT22;3540;53.242;10.408;2022-11-20T09:55:55;2.00;99.90
7000;DHT22;3540;53.242;10.408;2022-11-20T09:58:40;1.90;99.90
7000;DHT22;3540;53.242;10.408;2022-11-20T10:01:13;1.90;99.90
7000;DHT22;3540;53.242;10.408;2022-11-20T10:04:02;1.90;99.90
7000;DHT22;3540;53.242;10.408;2022-11-20T10:17:21;2.30;99.90
7000;DHT22;3540;53.242;10.408;2022-11-20T10:25:40;2.30;99.90
7000;DHT22;3540;53.242;10.408;2022-11-20T10:28:30;2.40;99.90
7000;DHT22;3540;53.242;10.408;2022-11-20T10:31:03;2.40;99.90
7000;DHT22;3540;53.242;10.408;2022-11-20T10:33:33;2.40;99.90
7000;DHT22;3540;53.242;10.408;2022-11-20T10:36:24;2.50;99.90
7000;DHT22;3540;53.242;10.408;2022-11-20T10:39:22;2.70;99.90
7000;DHT22;3540;53.242;10.408;2022-11-20T10:41:50;2.70;99.90
7000;DHT22;3540;53.242;10.408;2022-11-20T10:44:20;2.50;99.90
7000;DHT22;3540;53.242;10.408;2022-11-20T10:47:25;2.40;99.90
7000;DHT22;3540;53.242;10.408;2022-11-20T10:49:53;2.30;99.90
7000;DHT22;3540;53.242;10.408;2022-11-20T10:53:12;2.30;99.90
7000;DHT22;3540;53.242;10.408;2022-11-20T10:55:44;2.30;99.90
7000;DHT22;3540;53.242;10.408;2022-11-20T10:58:23;2.30;99.90
7000;DHT22;3540;53.242;10.408;2022-11-20T11:00:51;2.30;99.90
7000;DHT22;3540;53.242;10.408;2022-11-20T11:03:28;2.40;99.90
7000;DHT22;3540;53.242;10.408;2022-11-20T11:06:17;2.40;99.90
7000;DHT22;3540;53.242;10.408;2022-11-20T11:08:47;2.40;99.90
7000;DHT22;3540;53.242;10.408;2022-11-20T11:11:21;2.50;99.90
7000;DHT22;3540;53.242;10.408;2022-11-20T11:13:48;2.60;99.90
7000;DHT22;3540;53.242;10.408;2022-11-20T11:16:25;2.60;99.90
7000;DHT22;3540;53.242;10.408;2022-11-20T11:19:03;2.60;99.90
7000;DHT22;3540;53.242;10.408;2022-11-20T11:21:29;2.70;99.90
7000;DHT22;3540;53.242;10.408;2022-11-20T11:24:04;2.90;99.90
7000;DHT22;3540;53.242;10.408;2022-11-20T11:26:30;2.90;99.90
7000;DHT22;3540;53.242;10.408;2022-11-20T11:29:01;2.80;99.90
7000;DHT22;3540;53.242;10.408;2022-11-20T11:31:33;2.80;99.90
7000;DHT22;3540;53.242;10.408;2022-11-20T11:34:15;3.20;99.90
7000;DHT22;3540;53.242;10.408;2022-11-20T11:36:42;3.40;99.90
7000;DHT22;3540;53.242;10.408;2022-11-20T11:39:16;3.30;99.90
7000;DHT22;3540;53.242;10.408;2022-11-20T11:41:43;3.20;99.90
7000;DHT22;3540;53.242;10.408;2022-11-20T11:47:02;3.00;99.90
7000;DHT22;3540;53.242;10.408;2022-11-20T11:49:29;2.90;99.90
7000;DHT22;3540;53.242;10.408;2022-11-20T11:52:00;3.00;99.90
7000;DHT22;3540;53.242;10.408;2022-11-20T11:54:55;3.10;99.90
7000;DHT22;3540;53.242;10.408;2022-11-20T11:57:48;3.00;99.90
7000;DHT22;3540;53.242;10.408;2022-11-20T12:00:17;2.90;99.90
7000;DHT22;3540;53.242;10.408;2022-11-20T12:07:51;2.90;99.90
7000;DHT22;3540;53.242;10.408;2022-11-20T12:10:22;2.90;99.90
7000;DHT22;3540;53.242;10.408;2022-11-20T12:12:52;3.10;99.90
7000;DHT22;3540;53.242;10.408;2022-11-20T12:15:30;3.30;99.90
7000;DHT22;3540;53.242;10.408;2022-11-20T12:17:56;3.60;99.90
7000;DHT22;3540;53.242;10.408;2022-11-20T12:20:33;4.00;99.90
7000;DHT22;3540;53.242;10.408;2022-11-20T12:23:40;4.00;99.90
7000;DHT22;3540;53.242;10.408;2022-11-20T12:26:22;3.70;99.90
7000;DHT22;3540;53.242;10.408;2022-11-20T12:28:58;3.50;99.90
7000;DHT22;3540;53.242;10.408;2022-11-20T12:34:40;3.60;99.90
7000;DHT22;3540;53.242;10.408;2022-11-20T12:37:21;3.40;99.90
7000;DHT22;3540;53.242;10.408;2022-11-20T12:39:50;3.40;99.90
7000;DHT22;3540;53.242;10.408;2022-11-20T12:45:41;3.60;99.90
7000;DHT22;3540;53.242;10.408;2022-11-20T12:51:24;3.10;99.90
7000;DHT22;3540;53.242;10.408;2022-11-20T13:07:52;2.80;99.90
7000;DHT22;3540;53.242;10.408;2022-11-20T13:13:22;2.50;99.90
7000;DHT22;3540;53.242;10.408;2022-11-20T13:18:15;2.40;99.90
7000;DHT22;3540;53.242;10.408;2022-11-20T13:20:43;2.30;99.90
7000;DHT22;3540;53.242;10.408;2022-11-20T13:23:09;2.30;99.90
7000;DHT22;3540;53.242;10.408;2022-11-20T13:25:39;2.20;99.90
7000;DHT22;3540;53.242;10.408;2022-11-20T13:30:31;2.20;99.90
7000;DHT22;3540;53.242;10.408;2022-11-20T13:33:36;2.20;99.90
7000;DHT22;3540;53.242;10.408;2022-11-20T13:36:05;2.20;99.90
7000;DHT22;3540;53.242;10.408;2022-11-20T13:38:48;2.30;99.90
7000;DHT22;3540;53.242;10.408;2022-11-20T13:46:45;2.40;99.90
7000;DHT22;3540;53.242;10.408;2022-11-20T13:49:25;2.30;99.90
7000;DHT22;3540;53.242;10.408;2022-11-20T13:54:51;2.40;99.90
7000;DHT22;3540;53.242;10.408;2022-11-20T14:00:21;2.50;99.90
7000;DHT22;3540;53.242;10.408;2022-11-20T14:05:46;2.30;99.90
7000;DHT22;3540;53.242;10.408;2022-11-20T14:13:38;2.30;99.90
7000;DHT22;3540;53.242;10.408;2022-11-20T14:16:03;2.30;99.90
7000;DHT22;3540;53.242;10.408;2022-11-20T14:18:29;2.30;99.90
7000;DHT22;3540;53.242;10.408;2022-11-20T14:20:55;2.20;99.90
7000;DHT22;3540;53.242;10.408;2022-11-20T14:23:26;2.20;99.90
7000;DHT22;3540;53.242;10.408;2022-11-20T14:25:52;2.20;99.90
7000;DHT22;3540;53.242;10.408;2022-11-20T14:28:29;2.20;99.90
7000;DHT22;3540;53.242;10.408;2022-11-20T14:30:55;2.10;99.90
7000;DHT22;3540;53.242;10.408;2022-11-20T14:33:22;2.10;99.90
7000;DHT22;3540;53.242;10.408;2022-11-20T14:35:55;2.20;99.90
7000;DHT22;3540;53.242;10.408;2022-11-20T14:38:28;2.20;99.90
7000;DHT22;3540;53.242;10.408;2022-11-20T14:41:05;2.20;99.90
7000;DHT22;3540;53.242;10.408;2022-11-20T14:43:30;2.10;99.90
7000;DHT22;3540;53.242;10.408;2022-11-20T14:45:59;2.10;99.90
7000;DHT22;3540;53.242;10.408;2022-11-20T14:48:46;2.10;99.90
7000;DHT22;3540;53.242;10.408;2022-11-20T14:51:36;2.00;99.90
7000;DHT22;3540;53.242;10.408;2022-11-20T14:54:15;2.00;99.90
7000;DHT22;3540;53.242;10.408;2022-11-20T14:56:42;2.00;99.90
7000;DHT22;3540;53.242;10.408;2022-11-20T14:59:26;2.00;99.90
7000;DHT22;3540;53.242;10.408;2022-11-20T15:02:04;1.90;99.90
7000;DHT22;3540;53.242;10.408;2022-11-20T15:04:30;1.90;99.90
7000;DHT22;3540;53.242;10.408;2022-11-20T15:07:00;1.80;99.90
7000;DHT22;3540;53.242;10.408;2022-11-20T15:09:25;1.80;99.90
7000;DHT22;3540;53.242;10.408;2022-11-20T15:11:59;1.80;99.90
7000;DHT22;3540;53.242;10.408;2022-11-20T15:14:27;1.70;99.90
7000;DHT22;3540;53.242;10.408;2022-11-20T15:16:54;1.60;99.90
7000;DHT22;3540;53.242;10.408;2022-11-20T15:19:22;1.60;99.90
7000;DHT22;3540;53.242;10.408;2022-11-20T15:21:48;1.50;99.90
7000;DHT22;3540;53.242;10.408;2022-11-20T15:24:14;1.50;99.90
7000;DHT22;3540;53.242;10.408;2022-11-20T15:26:40;1.50;99.90
7000;DHT22;3540;53.242;10.408;2022-11-20T15:29:14;1.50;99.90
7000;DHT22;3540;53.242;10.408;2022-11-20T15:31:44;1.40;99.90
7000;DHT22;3540;53.242;10.408;2022-11-20T15:34:14;1.40;99.90
7000;DHT22;3540;53.242;10.408;2022-11-20T15:36:41;1.40;99.90
7000;DHT22;3540;53.242;10.408;2022-11-20T15:39:08;1.30;99.90
7000;DHT22;3540;53.242;10.408;2022-11-20T15:41:35;1.30;99.90
7000;DHT22;3540;53.242;10.408;2022-11-20T15:44:01;1.20;99.90
7000;DHT22;3540;53.242;10.408;2022-11-20T15:46:29;1.20;99.90
7000;DHT22;3540;53.242;10.408;2022-11-20T15:49:00;1.20;99.90
7000;DHT22;3540;53.242;10.408;2022-11-20T15:51:30;1.20;99.90
7000;DHT22;3540;53.242;10.408;2022-11-20T15:53:57;1.20;99.90
7000;DHT22;3540;53.242;10.408;2022-11-20T15:56:23;1.20;99.90
7000;DHT22;3540;53.242;10.408;2022-11-20T15:58:49;1.10;99.90
7000;DHT22;3540;53.242;10.408;2022-11-20T16:01:17;1.10;99.90
7000;DHT22;3540;53.242;10.408;2022-11-20T16:03:43;1.10;99.90
7000;DHT22;3540;53.242;10.408;2022-11-20T16:06:09;1.10;99.90
7000;DHT22;3540;53.242;10.408;2022-11-20T16:08:35;1.10;99.90
7000;DHT22;3540;53.242;10.408;2022-11-20T16:11:00;1.10;99.90
7000;DHT22;3540;53.242;10.408;2022-11-20T16:13:26;1.10;99.90
7000;DHT22;3540;53.242;10.408;2022-11-20T16:19:11;1.20;99.90
7000;DHT22;3540;53.242;10.408;2022-11-20T16:21:37;1.20;99.90
7000;DHT22;3540;53.242;10.408;2022-11-20T16:24:06;1.20;99.90
7000;DHT22;3540;53.242;10.408;2022-11-20T16:26:33;1.20;99.90
7000;DHT22;3540;53.242;10.408;2022-11-20T16:29:00;1.30;99.90
7000;DHT22;3540;53.242;10.408;2022-11-20T16:31:26;1.30;99.90
7000;DHT22;3540;53.242;10.408;2022-11-20T16:33:56;1.30;99.90
7000;DHT22;3540;53.242;10.408;2022-11-20T16:36:24;1.40;99.90
7000;DHT22;3540;53.242;10.408;2022-11-20T16:38:55;1.30;99.90
7000;DHT22;3540;53.242;10.408;2022-11-20T16:41:21;1.40;99.90
7000;DHT22;3540;53.242;10.408;2022-11-20T16:43:50;1.40;99.90
7000;DHT22;3540;53.242;10.408;2022-11-20T16:46:18;1.30;99.90
7000;DHT22;3540;53.242;10.408;2022-11-20T16:48:45;1.30;99.90
7000;DHT22;3540;53.242;10.408;2022-11-20T16:51:14;1.30;99.90
7000;DHT22;3540;53.242;10.408;2022-11-20T16:53:40;1.30;99.90
7000;DHT22;3540;53.242;10.408;2022-11-20T16:56:18;1.20;99.90
7000;DHT22;3540;53.242;10.408;2022-11-20T16:58:45;1.10;99.90
7000;DHT22;3540;53.242;10.408;2022-11-20T17:01:14;1.10;99.90
7000;DHT22;3540;53.242;10.408;2022-11-20T17:03:42;1.00;99.90
7000;DHT22;3540;53.242;10.408;2022-11-20T17:06:17;1.00;99.90
7000;DHT22;3540;53.242;10.408;2022-11-20T17:08:43;0.90;99.90
7000;DHT22;3540;53.242;10.408;2022-11-20T17:11:11;0.90;99.90
7000;DHT22;3540;53.242;10.408;2022-11-20T17:13:37;0.90;99.90
7000;DHT22;3540;53.242;10.408;2022-11-20T17:16:08;0.80;99.90
7000;DHT22;3540;53.242;10.408;2022-11-20T17:18:34;0.80;99.90
7000;DHT22;3540;53.242;10.408;2022-11-20T17:21:00;0.80;99.90
7000;DHT22;3540;53.242;10.408;2022-11-20T17:23:33;0.80;99.90
7000;DHT22;3540;53.242;10.408;2022-11-20T17:26:04;0.70;99.90
7000;DHT22;3540;53.242;10.408;2022-11-20T17:28:31;0.70;99.90
7000;DHT22;3540;53.242;10.408;2022-11-20T17:31:01;0.60;99.90
7000;DHT22;3540;53.242;10.408;2022-11-20T17:33:28;0.60;99.90
7000;DHT22;3540;53.242;10.408;2022-11-20T17:35:54;0.70;99.90
7000;DHT22;3540;53.242;10.408;2022-11-20T17:38:19;0.70;99.90
7000;DHT22;3540;53.242;10.408;2022-11-20T17:40:45;0.70;99.90
7000;DHT22;3540;53.242;10.408;2022-11-20T17:43:11;0.60;99.90
7000;DHT22;3540;53.242;10.408;2022-11-20T17:45:36;0.60;99.90
7000;DHT22;3540;53.242;10.408;2022-11-20T17:48:02;0.60;99.90